Time;durP1;ratioP1;P1;durP2;ratioP2;P2;SDS_P1;SDS_P2;PMS_P1;PMS_P2;Temp;Humidity;BMP_temperature;BMP_pressure;BME280_temperature;BME280_humidity;BME280_pressure;Samples;Min_cycle;Max_cycle;Signal;HPM_P1;HPM_P2
2022/08/17 00:00:14;;;;;;;7.95;3.47;;;;;;;;;;5062493;28;20078;-78
2022/08/17 00:02:59;;;;;;;6.43;3.50;;;;;;;;;;5068328;28;20024;-78
2022/08/17 00:05:25;;;;;;;8.55;3.53;;;;;;;;;;5059844;28;20112;-78
2022/08/17 00:07:51;;;;;;;9.60;3.60;;;;;;;;;;5066193;28;20032;-78
2022/08/17 00:10:18;;;;;;;10.38;3.65;;;;;;;;;;5064785;28;20558;-78
2022/08/17 00:12:44;;;;;;;7.50;3.85;;;;;;;;;;5063896;28;20033;-78
2022/08/17 00:15:10;;;;;;;10.27;4.05;;;;;;;;;;5069876;28;20595;-78
2022/08/17 00:17:37;;;;;;;6.97;3.45;;;;;;;;;;5066192;28;20032;-78
2022/08/17 00:20:03;;;;;;;8.63;3.33;;;;;;;;;;5059550;28;20383;-78
2022/08/17 00:22:29;;;;;;;7.80;4.13;;;;;;;;;;5068396;28;20060;-78
2022/08/17 00:24:55;;;;;;;8.57;3.90;;;;;;;;;;5060751;28;20087;-78
2022/08/17 00:27:21;;;;;;;9.73;3.40;;;;;;;;;;5064619;28;20967;-78
2022/08/17 00:29:47;;;;;;;7.70;3.30;;;;;;;;;;5069059;28;20043;-78
2022/08/17 00:32:14;;;;;;;6.75;3.78;;;;;;;;;;5065481;28;20381;-78
2022/08/17 00:34:40;;;;;;;9.10;3.70;;;;;;;;;;5067218;28;20032;-78
2022/08/17 00:37:06;;;;;;;10.30;4.05;;;;;;;;;;5074127;28;20050;-78
2022/08/17 00:39:33;;;;;;;9.50;4.25;;;;;;;;;;5069501;28;20884;-78
2022/08/17 00:41:59;;;;;;;10.65;4.65;;;;;;;;;;5065290;28;20028;-78
2022/08/17 00:44:25;;;;;;;8.30;4.03;;;;;;;;;;5064342;28;20033;-78
2022/08/17 00:46:51;;;;;;;9.60;4.50;;;;;;;;;;5069847;28;20029;-78
2022/08/17 00:49:22;;;;;;;13.65;4.13;;;;;;;;;;5060681;28;20042;-78
2022/08/17 00:51:56;;;;;;;6.60;3.45;;;;;;;;;;5069503;28;21075;-77
2022/08/17 00:54:28;;;;;;;11.27;3.58;;;;;;;;;;5066069;28;20803;-78
2022/08/17 00:56:54;;;;;;;;;;;;;;;;;;5070090;28;20028;-78
2022/08/17 00:59:21;;;;;;;9.20;3.80;;;;;;;;;;5059679;28;20007;-78
2022/08/17 01:01:48;;;;;;;9.95;4.25;;;;;;;;;;5065042;28;20032;-78
2022/08/17 01:04:15;;;;;;;9.68;4.22;;;;;;;;;;5080209;28;20070;-78
2022/08/17 01:06:42;;;;;;;9.57;4.10;;;;;;;;;;5066373;28;20504;-78
2022/08/17 01:09:08;;;;;;;11.13;4.70;;;;;;;;;;5059381;28;20531;-78
2022/08/17 01:11:36;;;;;;;10.52;3.97;;;;;;;;;;5071842;28;20051;-78
2022/08/17 01:14:02;;;;;;;11.10;3.60;;;;;;;;;;5064787;28;20028;-78
2022/08/17 01:16:29;;;;;;;10.25;3.92;;;;;;;;;;5053758;28;20419;-78
2022/08/17 01:18:58;;;;;;;9.25;3.20;;;;;;;;;;5069929;28;20028;-78
2022/08/17 01:21:29;;;;;;;8.75;4.13;;;;;;;;;;5055804;28;20048;-78
2022/08/17 01:23:56;;;;;;;12.30;4.10;;;;;;;;;;5060819;28;20463;-78
2022/08/17 01:26:22;;;;;;;8.30;3.45;;;;;;;;;;5070155;28;20047;-79
2022/08/17 01:28:49;;;;;;;10.13;4.30;;;;;;;;;;5070440;28;20028;-78
2022/08/17 01:31:15;;;;;;;8.90;4.20;;;;;;;;;;5070905;28;20028;-78
2022/08/17 01:33:41;;;;;;;10.60;3.97;;;;;;;;;;5062717;28;20566;-78
2022/08/17 01:36:08;;;;;;;8.73;3.22;;;;;;;;;;5069561;28;20115;-78
2022/08/17 01:38:34;;;;;;;8.70;3.67;;;;;;;;;;5066495;28;20063;-78
2022/08/17 01:41:02;;;;;;;9.43;3.63;;;;;;;;;;5068759;28;20111;-78
2022/08/17 01:43:32;;;;;;;9.30;3.60;;;;;;;;;;5063378;28;20032;-78
2022/08/17 01:46:00;;;;;;;7.82;4.03;;;;;;;;;;5063669;28;20044;-78
2022/08/17 01:48:30;;;;;;;7.15;3.75;;;;;;;;;;5063839;28;20052;-78
2022/08/17 01:50:55;;;;;;;9.68;4.03;;;;;;;;;;5060645;28;20033;-78
2022/08/17 01:53:28;;;;;;;8.75;3.63;;;;;;;;;;5070159;28;20046;-78
2022/08/17 01:55:59;;;;;;;12.95;3.95;;;;;;;;;;5065944;28;20393;-78
2022/08/17 01:58:25;;;;;;;9.48;3.72;;;;;;;;;;5063519;28;20036;-78
2022/08/17 02:00:52;;;;;;;13.43;4.80;;;;;;;;;;5057416;28;20037;-78
2022/08/17 02:03:18;;;;;;;8.07;3.53;;;;;;;;;;5063063;28;20037;-78
2022/08/17 02:05:47;;;;;;;6.97;3.47;;;;;;;;;;5069560;28;20060;-78
2022/08/17 02:08:13;;;;;;;10.02;3.40;;;;;;;;;;5064361;28;20035;-78
2022/08/17 02:10:40;;;;;;;9.52;4.13;;;;;;;;;;5062857;28;20036;-78
2022/08/17 02:13:06;;;;;;;11.55;4.28;;;;;;;;;;5051972;28;20048;-78
2022/08/17 02:15:33;;;;;;;7.22;3.35;;;;;;;;;;5062977;28;20045;-78
2022/08/17 02:18:00;;;;;;;12.25;4.10;;;;;;;;;;5055479;28;20878;-78
2022/08/17 02:20:26;;;;;;;6.82;3.92;;;;;;;;;;5061518;28;20045;-78
2022/08/17 02:22:52;;;;;;;8.13;4.03;;;;;;;;;;5068604;28;20047;-78
2022/08/17 02:25:19;;;;;;;9.32;3.65;;;;;;;;;;5065913;28;20068;-78
2022/08/17 02:27:45;;;;;;;7.93;3.50;;;;;;;;;;5068590;28;20033;-78
2022/08/17 02:30:13;;;;;;;8.30;3.85;;;;;;;;;;5061863;28;20104;-78
2022/08/17 02:32:39;;;;;;;10.23;4.07;;;;;;;;;;5066742;28;20036;-78
2022/08/17 02:35:06;;;;;;;15.50;4.57;;;;;;;;;;5057872;28;20021;-78
2022/08/17 02:37:32;;;;;;;15.88;4.35;;;;;;;;;;5067451;28;20103;-78
2022/08/17 02:39:58;;;;;;;10.55;4.22;;;;;;;;;;5067373;28;20028;-78
2022/08/17 02:42:26;;;;;;;12.27;4.35;;;;;;;;;;5061903;28;20036;-78
2022/08/17 02:44:53;;;;;;;13.52;4.18;;;;;;;;;;5066701;28;20028;-78
2022/08/17 02:47:19;;;;;;;11.32;4.55;;;;;;;;;;5068755;28;20036;-78
2022/08/17 02:49:45;;;;;;;12.88;4.78;;;;;;;;;;5072613;28;20378;-78
2022/08/17 02:52:11;;;;;;;7.22;3.53;;;;;;;;;;5072977;28;20174;-78
2022/08/17 02:54:37;;;;;;;6.93;3.45;;;;;;;;;;5070158;28;20531;-78
2022/08/17 02:57:03;;;;;;;8.25;3.80;;;;;;;;;;5067938;28;20045;-78
2022/08/17 02:59:29;;;;;;;10.43;4.40;;;;;;;;;;5057782;28;20566;-78
2022/08/17 03:01:55;;;;;;;8.05;4.25;;;;;;;;;;5069180;28;20025;-78
2022/08/17 03:04:22;;;;;;;11.65;4.03;;;;;;;;;;5068390;28;20478;-78
2022/08/17 03:06:48;;;;;;;9.05;3.67;;;;;;;;;;5067250;28;20073;-78
2022/08/17 03:09:15;;;;;;;8.60;3.60;;;;;;;;;;5064489;28;20064;-78
2022/08/17 03:11:41;;;;;;;8.38;3.63;;;;;;;;;;5060876;28;20158;-78
2022/08/17 03:14:07;;;;;;;12.50;4.15;;;;;;;;;;5064415;28;20374;-78
2022/08/17 03:16:34;;;;;;;9.77;3.72;;;;;;;;;;5068139;28;20051;-78
2022/08/17 03:18:59;;;;;;;10.30;4.30;;;;;;;;;;5066233;28;20035;-78
2022/08/17 03:21:26;;;;;;;9.82;4.80;;;;;;;;;;5059488;28;20041;-78
2022/08/17 03:23:52;;;;;;;9.68;4.45;;;;;;;;;;5059183;28;20109;-78
2022/08/17 03:26:18;;;;;;;10.98;3.72;;;;;;;;;;5068486;28;20062;-78
2022/08/17 03:28:44;;;;;;;9.70;4.85;;;;;;;;;;5067888;28;20377;-78
2022/08/17 03:31:10;;;;;;;9.85;3.83;;;;;;;;;;5065339;28;20040;-78
2022/08/17 03:33:36;;;;;;;9.93;4.53;;;;;;;;;;5071257;28;20162;-78
2022/08/17 03:36:02;;;;;;;8.57;3.88;;;;;;;;;;5072066;28;20078;-78
2022/08/17 03:38:28;;;;;;;11.02;4.38;;;;;;;;;;5072079;28;20032;-78
2022/08/17 03:40:54;;;;;;;7.90;3.90;;;;;;;;;;5070024;28;20025;-78
2022/08/17 03:43:21;;;;;;;8.77;4.75;;;;;;;;;;5065860;28;20052;-78
2022/08/17 03:56:55;;;;;;;10.15;4.57;;;;;;;;;;5059746;28;20083;-78
2022/08/17 03:59:22;;;;;;;7.93;4.45;;;;;;;;;;5071275;28;20032;-78
2022/08/17 04:01:50;;;;;;;9.25;5.15;;;;;;;;;;5065365;28;20032;-78
2022/08/17 04:04:16;;;;;;;8.85;4.20;;;;;;;;;;5069478;28;20111;-78
2022/08/17 04:06:42;;;;;;;7.30;4.07;;;;;;;;;;5065511;28;20477;-78
2022/08/17 04:09:08;;;;;;;7.63;4.25;;;;;;;;;;5071405;28;20416;-78
2022/08/17 04:11:35;;;;;;;9.23;4.32;;;;;;;;;;5063007;28;20033;-78
2022/08/17 04:14:01;;;;;;;10.10;4.60;;;;;;;;;;5071208;28;20042;-78
2022/08/17 04:16:28;;;;;;;9.35;4.57;;;;;;;;;;5057768;28;20116;-78
2022/08/17 04:18:54;;;;;;;8.35;4.25;;;;;;;;;;5080977;28;20033;-77
2022/08/17 04:21:20;;;;;;;8.40;4.32;;;;;;;;;;5067951;28;20819;-78
2022/08/17 04:23:46;;;;;;;6.60;4.13;;;;;;;;;;5068261;28;20061;-78
2022/08/17 04:26:13;;;;;;;8.32;4.75;;;;;;;;;;5067701;28;20037;-78
2022/08/17 04:28:39;;;;;;;12.57;5.00;;;;;;;;;;5064885;28;20087;-78
2022/08/17 04:31:05;;;;;;;9.50;4.60;;;;;;;;;;5065976;28;20036;-78
2022/08/17 04:33:31;;;;;;;9.40;4.60;;;;;;;;;;5060488;28;20033;-78
2022/08/17 04:35:59;;;;;;;10.77;4.43;;;;;;;;;;5064238;28;20033;-78
2022/08/17 04:38:27;;;;;;;12.00;4.93;;;;;;;;;;5058904;28;20116;-78
2022/08/17 04:43:39;;;;;;;9.98;5.00;;;;;;;;;;5068358;28;20043;-78
2022/08/17 04:46:07;;;;;;;11.00;4.55;;;;;;;;;;5064496;28;20033;-78
2022/08/17 04:48:38;;;;;;;12.23;4.28;;;;;;;;;;5063913;28;20036;-78
2022/08/17 04:51:24;;;;;;;12.30;5.00;;;;;;;;;;5060546;28;20059;-78
2022/08/17 04:53:52;;;;;;;10.02;5.10;;;;;;;;;;5067491;28;20086;-78
2022/08/17 04:56:18;;;;;;;9.23;4.60;;;;;;;;;;5070471;28;20029;-78
2022/08/17 04:58:45;;;;;;;12.63;4.85;;;;;;;;;;5070243;28;20036;-78
2022/08/17 05:01:11;;;;;;;10.27;4.82;;;;;;;;;;5044852;28;20029;-78
2022/08/17 05:03:37;;;;;;;11.02;5.18;;;;;;;;;;5069771;28;20028;-78
2022/08/17 05:06:03;;;;;;;14.65;5.35;;;;;;;;;;5067394;28;20494;-78
2022/08/17 05:08:29;;;;;;;12.02;4.30;;;;;;;;;;5068732;28;20093;-78
2022/08/17 05:10:55;;;;;;;12.43;5.05;;;;;;;;;;5068742;28;20033;-78
2022/08/17 05:13:23;;;;;;;10.15;5.28;;;;;;;;;;5079417;28;20038;-78
2022/08/17 05:15:52;;;;;;;12.02;5.32;;;;;;;;;;5068603;28;20120;-78
2022/08/17 05:18:18;;;;;;;11.80;5.18;;;;;;;;;;5068053;28;20029;-79
2022/08/17 05:20:44;;;;;;;10.65;4.68;;;;;;;;;;5067266;28;20401;-78
2022/08/17 05:23:11;;;;;;;10.93;5.28;;;;;;;;;;5074509;28;20020;-78
2022/08/17 05:25:49;;;;;;;12.27;5.50;;;;;;;;;;5073075;28;20055;-78
2022/08/17 05:28:17;;;;;;;10.65;4.90;;;;;;;;;;5068858;28;20024;-78
2022/08/17 05:30:43;;;;;;;14.00;5.60;;;;;;;;;;5069467;28;20098;-78
2022/08/17 05:33:09;;;;;;;11.40;4.60;;;;;;;;;;5071352;28;20036;-78
2022/08/17 05:35:36;;;;;;;10.82;5.10;;;;;;;;;;5070374;28;20082;-78
2022/08/17 05:38:03;;;;;;;11.40;5.10;;;;;;;;;;5062434;28;20028;-78
2022/08/17 05:40:29;;;;;;;12.88;5.80;;;;;;;;;;5069228;28;20032;-78
2022/08/17 05:43:09;;;;;;;7.68;4.47;;;;;;;;;;5068138;28;20029;-78
2022/08/17 05:45:55;;;;;;;16.98;5.32;;;;;;;;;;5066550;28;20123;-78
2022/08/17 05:48:21;;;;;;;17.17;4.78;;;;;;;;;;5039877;28;20032;-78
2022/08/17 05:50:50;;;;;;;13.45;4.63;;;;;;;;;;5066769;28;20082;-79
2022/08/17 05:53:19;;;;;;;13.68;6.32;;;;;;;;;;5059457;28;20029;-78
2022/08/17 05:55:53;;;;;;;13.30;4.55;;;;;;;;;;5058419;28;20047;-78
2022/08/17 05:58:19;;;;;;;14.45;5.30;;;;;;;;;;5057319;28;20155;-79
2022/08/17 06:00:45;;;;;;;12.45;4.47;;;;;;;;;;5068057;28;20642;-78
2022/08/17 06:03:30;;;;;;;9.55;4.30;;;;;;;;;;5069115;28;20104;-78
2022/08/17 06:06:05;;;;;;;10.77;4.60;;;;;;;;;;5069506;28;20037;-79
2022/08/17 06:08:37;;;;;;;14.55;5.60;;;;;;;;;;5060005;28;20037;-78
2022/08/17 06:11:26;;;;;;;15.07;4.95;;;;;;;;;;5068619;28;20546;-78
2022/08/17 06:13:52;;;;;;;14.77;5.25;;;;;;;;;;5044246;28;20565;-78
2022/08/17 06:16:23;;;;;;;12.68;5.55;;;;;;;;;;5068771;28;20040;-78
2022/08/17 06:19:07;;;;;;;15.57;5.40;;;;;;;;;;5060591;28;21124;-78
2022/08/17 06:21:35;;;;;;;14.43;5.93;;;;;;;;;;5077026;28;20052;-78
2022/08/17 06:24:19;;;;;;;15.95;5.45;;;;;;;;;;5068777;28;20025;-78
2022/08/17 06:26:46;;;;;;;10.73;4.70;;;;;;;;;;5074843;28;20036;-78
2022/08/17 06:29:27;;;;;;;10.55;4.75;;;;;;;;;;5069630;28;20032;-78
2022/08/17 06:31:53;;;;;;;9.57;4.63;;;;;;;;;;5065066;28;20518;-78
2022/08/17 06:34:20;;;;;;;15.48;5.18;;;;;;;;;;5061972;28;20363;-78
2022/08/17 06:37:05;;;;;;;10.23;4.43;;;;;;;;;;5066811;28;20799;-78
2022/08/17 06:39:31;;;;;;;15.02;4.72;;;;;;;;;;5065028;28;20086;-78
2022/08/17 06:42:04;;;;;;;14.65;4.63;;;;;;;;;;5067949;28;20021;-78
2022/08/17 06:44:50;;;;;;;10.98;4.25;;;;;;;;;;5068559;28;20033;-78
2022/08/17 06:47:17;;;;;;;11.82;4.60;;;;;;;;;;5071490;28;20577;-78
2022/08/17 06:49:48;;;;;;;13.90;4.45;;;;;;;;;;5071081;28;20040;-78
2022/08/17 06:52:36;;;;;;;11.97;4.60;;;;;;;;;;5068525;28;20043;-78
2022/08/17 06:55:13;;;;;;;14.63;4.43;;;;;;;;;;5067975;28;20133;-78
2022/08/17 06:57:42;;;;;;;10.88;5.05;;;;;;;;;;5069074;28;20044;-78
2022/08/17 07:00:21;;;;;;;9.32;4.13;;;;;;;;;;5064684;28;20104;-79
2022/08/17 07:02:54;;;;;;;7.90;4.35;;;;;;;;;;5066981;28;20020;-78
2022/08/17 07:05:40;;;;;;;9.23;4.45;;;;;;;;;;5070076;28;20468;-78
2022/08/17 07:08:24;;;;;;;14.15;4.78;;;;;;;;;;5030207;28;20048;-79
2022/08/17 07:10:53;;;;;;;12.02;5.28;;;;;;;;;;5071125;28;20036;-78
2022/08/17 07:13:38;;;;;;;9.90;4.78;;;;;;;;;;5072011;28;20028;-79
2022/08/17 07:16:07;;;;;;;12.73;4.88;;;;;;;;;;5069333;28;20037;-79
2022/08/17 07:18:33;;;;;;;12.18;4.60;;;;;;;;;;5061784;28;20080;-78
2022/08/17 07:21:07;;;;;;;12.25;5.03;;;;;;;;;;5068847;28;20132;-78
2022/08/17 07:23:53;;;;;;;12.55;4.40;;;;;;;;;;5064621;28;20043;-78
2022/08/17 07:26:22;;;;;;;12.13;4.97;;;;;;;;;;5028121;28;20047;-78
2022/08/17 07:28:49;;;;;;;11.50;4.68;;;;;;;;;;5066014;28;20369;-79
2022/08/17 07:31:16;;;;;;;12.00;4.55;;;;;;;;;;5061209;28;20033;-78
2022/08/17 07:33:57;;;;;;;12.65;4.47;;;;;;;;;;5074225;28;20025;-78
2022/08/17 07:36:24;;;;;;;13.90;4.90;;;;;;;;;;5078394;28;20108;-78
2022/08/17 07:38:57;;;;;;;10.07;4.32;;;;;;;;;;5070915;28;20061;-78
2022/08/17 07:41:23;;;;;;;9.65;4.15;;;;;;;;;;5065275;28;20113;-78
2022/08/17 07:43:51;;;;;;;9.18;4.60;;;;;;;;;;5065543;28;20060;-79
2022/08/17 07:49:02;;;;;;;16.38;4.72;;;;;;;;;;5068533;28;20770;-78
2022/08/17 07:51:31;;;;;;;9.93;4.50;;;;;;;;;;5064288;28;20044;-79
2022/08/17 07:54:22;;;;;;;10.25;4.53;;;;;;;;;;5076679;28;20035;-78
2022/08/17 07:56:50;;;;;;;11.13;4.38;;;;;;;;;;5067949;28;20043;-78
2022/08/17 07:59:18;;;;;;;10.75;3.53;;;;;;;;;;5060346;28;20112;-78
2022/08/17 08:02:06;;;;;;;10.30;4.13;;;;;;;;;;5057492;28;20043;-78
2022/08/17 08:04:41;;;;;;;13.48;4.80;;;;;;;;;;5054416;28;20029;-78
2022/08/17 08:07:17;;;;;;;8.73;3.97;;;;;;;;;;5074228;28;20036;-78
2022/08/17 08:09:45;;;;;;;12.00;3.85;;;;;;;;;;5062265;28;20109;-79
2022/08/17 08:12:23;;;;;;;11.30;4.70;;;;;;;;;;5066105;28;20631;-78
2022/08/17 08:14:55;;;;;;;9.43;4.25;;;;;;;;;;5061819;28;20036;-79
2022/08/17 08:17:23;;;;;;;8.13;3.97;;;;;;;;;;5067599;28;20032;-79
2022/08/17 08:19:49;;;;;;;11.32;3.80;;;;;;;;;;5063458;28;20136;-79
2022/08/17 08:22:22;;;;;;;11.93;4.55;;;;;;;;;;5054116;28;20112;-78
2022/08/17 08:25:04;;;;;;;10.20;4.80;;;;;;;;;;5059868;28;20029;-78
2022/08/17 08:27:33;;;;;;;10.35;4.47;;;;;;;;;;5066776;28;20033;-79
2022/08/17 08:30:05;;;;;;;9.80;4.47;;;;;;;;;;5065064;28;20774;-78
2022/08/17 08:32:37;;;;;;;11.10;4.60;;;;;;;;;;5064227;28;20036;-79
2022/08/17 08:35:08;;;;;;;11.57;3.72;;;;;;;;;;5070277;28;20032;-79
2022/08/17 08:37:49;;;;;;;12.07;4.80;;;;;;;;;;5062644;28;20485;-78
2022/08/17 08:40:15;;;;;;;9.57;4.37;;;;;;;;;;5063358;28;20294;-79
2022/08/17 08:42:42;;;;;;;14.63;5.10;;;;;;;;;;5070253;28;20116;-78
2022/08/17 08:45:08;;;;;;;10.88;4.82;;;;;;;;;;5069060;28;20123;-78
2022/08/17 08:47:34;;;;;;;10.52;3.60;;;;;;;;;;5063574;28;20087;-79
2022/08/17 08:50:09;;;;;;;12.15;4.13;;;;;;;;;;5070093;28;20024;-78
2022/08/17 08:52:36;;;;;;;9.25;3.90;;;;;;;;;;5069605;28;20053;-78
2022/08/17 08:55:15;;;;;;;10.50;4.35;;;;;;;;;;5075150;28;20021;-78
2022/08/17 08:58:01;;;;;;;21.77;5.35;;;;;;;;;;5064492;28;20045;-79
2022/08/17 09:00:28;;;;;;;13.80;4.50;;;;;;;;;;5069224;28;20039;-78
2022/08/17 09:03:13;;;;;;;12.30;4.50;;;;;;;;;;5065213;28;20572;-78
2022/08/17 09:05:51;;;;;;;8.32;4.32;;;;;;;;;;5064688;28;20459;-78
2022/08/17 09:08:35;;;;;;;11.90;4.40;;;;;;;;;;5069718;28;20021;-79
2022/08/17 09:11:08;;;;;;;10.15;5.22;;;;;;;;;;5069121;28;20043;-79
2022/08/17 09:13:54;;;;;;;11.75;4.18;;;;;;;;;;5067002;28;20032;-79
2022/08/17 09:16:28;;;;;;;12.32;5.13;;;;;;;;;;5057759;28;20482;-79
2022/08/17 09:19:01;;;;;;;8.35;4.13;;;;;;;;;;5065438;28;20493;-79
2022/08/17 09:21:30;;;;;;;10.20;3.97;;;;;;;;;;5067565;28;20056;-77
2022/08/17 09:24:15;;;;;;;13.10;5.00;;;;;;;;;;5068144;28;20531;-77
2022/08/17 09:26:47;;;;;;;11.30;4.88;;;;;;;;;;5068728;28;20599;-77
2022/08/17 09:29:14;;;;;;;11.57;4.15;;;;;;;;;;5055449;28;20164;-77
2022/08/17 09:31:49;;;;;;;11.90;4.18;;;;;;;;;;5066750;28;20037;-76
2022/08/17 09:34:17;;;;;;;9.23;3.72;;;;;;;;;;5065777;28;20074;-76
2022/08/17 09:36:59;;;;;;;8.27;3.80;;;;;;;;;;5061038;28;20056;-77
2022/08/17 09:39:32;;;;;;;8.35;4.13;;;;;;;;;;5066689;28;20154;-77
2022/08/17 09:42:02;;;;;;;9.93;3.80;;;;;;;;;;5066774;28;20032;-77
2022/08/17 09:44:39;;;;;;;10.75;4.20;;;;;;;;;;5065827;28;20032;-77
2022/08/17 09:47:09;;;;;;;16.15;4.07;;;;;;;;;;5061811;28;20033;-76
2022/08/17 09:49:52;;;;;;;11.15;4.03;;;;;;;;;;5062057;28;20028;-76
2022/08/17 09:52:23;;;;;;;9.98;4.40;;;;;;;;;;5068565;28;20856;-77
2022/08/17 09:54:50;;;;;;;8.55;3.83;;;;;;;;;;5064452;28;20040;-77
2022/08/17 09:57:22;;;;;;;9.38;3.90;;;;;;;;;;5067506;28;20474;-76
2022/08/17 09:59:57;;;;;;;9.55;3.20;;;;;;;;;;5070642;28;20039;-76
2022/08/17 10:02:53;;;;;;;9.20;4.07;;;;;;;;;;5063735;28;20082;-76
2022/08/17 10:05:31;;;;;;;7.45;3.65;;;;;;;;;;5061743;28;20501;-76
2022/08/17 10:08:01;;;;;;;9.30;3.72;;;;;;;;;;5063128;28;20032;-76
2022/08/17 10:10:42;;;;;;;9.45;3.85;;;;;;;;;;5033203;28;20037;-76
2022/08/17 10:13:14;;;;;;;7.45;4.15;;;;;;;;;;5063747;28;20442;-77
2022/08/17 10:16:00;;;;;;;8.57;4.20;;;;;;;;;;5063517;28;20040;-77
2022/08/17 10:18:33;;;;;;;12.18;3.97;;;;;;;;;;5023834;28;20048;-76
2022/08/17 10:27:02;;;;;;;11.55;4.63;;;;;;;;;;5066391;28;20157;-79
2022/08/17 10:29:29;;;;;;;10.27;4.20;;;;;;;;;;5063551;28;20032;-78
2022/08/17 10:32:03;;;;;;;11.60;3.90;;;;;;;;;;5068095;28;20036;-78
2022/08/17 10:34:29;;;;;;;10.20;4.53;;;;;;;;;;5067439;28;20040;-78
2022/08/17 10:36:58;;;;;;;11.57;4.00;;;;;;;;;;5068445;28;20821;-78
2022/08/17 10:39:36;;;;;;;9.27;4.10;;;;;;;;;;5067324;28;20033;-78
2022/08/17 10:42:20;;;;;;;9.30;3.90;;;;;;;;;;5071027;28;20032;-78
2022/08/17 10:44:55;;;;;;;9.98;3.78;;;;;;;;;;5072078;28;20036;-79
2022/08/17 10:47:25;;;;;;;12.43;3.50;;;;;;;;;;5065006;28;20031;-78
2022/08/17 10:49:54;;;;;;;6.73;3.60;;;;;;;;;;5064259;28;20036;-79
2022/08/17 10:52:20;;;;;;;13.32;4.03;;;;;;;;;;5064170;28;20029;-78
2022/08/17 10:54:55;;;;;;;5.72;3.08;;;;;;;;;;5063568;28;20079;-78
2022/08/17 10:57:33;;;;;;;11.93;4.32;;;;;;;;;;5057637;28;20032;-78
2022/08/17 11:00:19;;;;;;;9.10;3.72;;;;;;;;;;5069905;28;20074;-79
2022/08/17 11:02:48;;;;;;;12.00;4.03;;;;;;;;;;5020284;28;20432;-78
2022/08/17 11:05:27;;;;;;;11.40;4.28;;;;;;;;;;5058979;28;20029;-78
2022/08/17 11:08:00;;;;;;;6.93;3.55;;;;;;;;;;5070516;28;20044;-78
2022/08/17 11:10:26;;;;;;;9.95;3.88;;;;;;;;;;5071324;28;20668;-78
2022/08/17 11:12:53;;;;;;;7.68;3.70;;;;;;;;;;5062597;28;20048;-78
2022/08/17 11:15:40;;;;;;;10.80;3.53;;;;;;;;;;5063988;28;20208;-78
2022/08/17 11:18:06;;;;;;;8.55;3.60;;;;;;;;;;5069193;28;20087;-78
2022/08/17 11:20:39;;;;;;;8.35;3.70;;;;;;;;;;5066808;28;20055;-78
2022/08/17 11:23:24;;;;;;;8.63;3.72;;;;;;;;;;5063285;28;20024;-78
2022/08/17 11:25:52;;;;;;;8.05;3.35;;;;;;;;;;5059950;28;20037;-78
2022/08/17 11:28:21;;;;;;;8.13;3.85;;;;;;;;;;5068390;28;20048;-79
2022/08/17 11:30:49;;;;;;;7.40;3.35;;;;;;;;;;5065966;28;20041;-79
2022/08/17 11:33:33;;;;;;;10.25;3.38;;;;;;;;;;5073242;28;20900;-78
2022/08/17 11:35:59;;;;;;;12.18;4.15;;;;;;;;;;5068135;28;20413;-78
2022/08/17 11:38:35;;;;;;;9.25;3.58;;;;;;;;;;5068076;28;20031;-79
2022/08/17 11:41:19;;;;;;;7.68;3.72;;;;;;;;;;5063082;28;20123;-79
2022/08/17 11:44:04;;;;;;;5.88;3.47;;;;;;;;;;5069214;28;20021;-79
2022/08/17 11:52:35;;;;;;;8.95;4.18;;;;;;;;;;5069822;28;20079;-78
2022/08/17 11:55:01;;;;;;;9.13;3.65;;;;;;;;;;5069554;28;20024;-78
2022/08/17 11:57:30;;;;;;;7.57;3.35;;;;;;;;;;5076068;28;20125;-76
2022/08/17 11:59:59;;;;;;;9.30;3.58;;;;;;;;;;5067883;28;20104;-76
2022/08/17 12:02:31;;;;;;;7.53;3.80;;;;;;;;;;5065963;28;20040;-76
2022/08/17 12:05:26;;;;;;;13.50;4.15;;;;;;;;;;5076096;28;20111;-76
2022/08/17 12:07:52;;;;;;;8.18;3.92;;;;;;;;;;5064702;28;20037;-76
2022/08/17 12:10:20;;;;;;;9.63;3.95;;;;;;;;;;5068068;28;20029;-76
2022/08/17 12:12:55;;;;;;;11.32;4.03;;;;;;;;;;5069796;28;20041;-76
2022/08/17 12:15:27;;;;;;;6.35;3.30;;;;;;;;;;5068347;28;20032;-76
2022/08/17 12:17:54;;;;;;;9.13;3.83;;;;;;;;;;5064531;28;20106;-76
2022/08/17 12:20:23;;;;;;;12.73;3.95;;;;;;;;;;5059189;28;20044;-76
2022/08/17 12:23:03;;;;;;;9.32;3.15;;;;;;;;;;5062990;28;20498;-76
2022/08/17 12:25:44;;;;;;;10.32;3.28;;;;;;;;;;5068896;28;20054;-77
2022/08/17 12:28:29;;;;;;;9.43;4.05;;;;;;;;;;5067789;28;20115;-77
2022/08/17 12:30:59;;;;;;;9.20;3.78;;;;;;;;;;5062385;28;20033;-77
2022/08/17 12:33:27;;;;;;;8.60;3.67;;;;;;;;;;5060647;28;20090;-76
2022/08/17 12:35:57;;;;;;;7.70;3.80;;;;;;;;;;5069033;28;20497;-76
2022/08/17 12:38:24;;;;;;;12.75;4.75;;;;;;;;;;5055371;28;20032;-76
2022/08/17 12:40:58;;;;;;;9.43;3.88;;;;;;;;;;5063223;28;20035;-76
2022/08/17 12:43:26;;;;;;;7.15;3.55;;;;;;;;;;5061325;28;20469;-77
2022/08/17 12:45:58;;;;;;;10.38;3.58;;;;;;;;;;5070258;28;20142;-76
2022/08/17 12:48:25;;;;;;;10.02;3.88;;;;;;;;;;5065271;28;20056;-77
2022/08/17 12:50:52;;;;;;;10.52;4.03;;;;;;;;;;5065286;28;20151;-77
2022/08/17 12:53:24;;;;;;;11.05;4.20;;;;;;;;;;5064385;28;20461;-76
2022/08/17 12:55:50;;;;;;;10.32;3.60;;;;;;;;;;5064559;28;20040;-76
2022/08/17 12:58:28;;;;;;;7.70;3.78;;;;;;;;;;5066614;28;20040;-77
2022/08/17 13:00:59;;;;;;;7.93;3.53;;;;;;;;;;5059245;28;20055;-76
2022/08/17 13:03:30;;;;;;;5.68;3.38;;;;;;;;;;5060950;28;20132;-76
2022/08/17 13:05:56;;;;;;;7.97;3.90;;;;;;;;;;5076459;28;20074;-76
2022/08/17 13:08:25;;;;;;;10.15;3.30;;;;;;;;;;5069802;28;20479;-77
2022/08/17 13:10:55;;;;;;;10.02;4.28;;;;;;;;;;5066852;28;20077;-76
2022/08/17 13:13:22;;;;;;;10.43;4.32;;;;;;;;;;5063626;28;20025;-77
2022/08/17 13:16:03;;;;;;;9.23;3.58;;;;;;;;;;5068327;28;20355;-76
2022/08/17 13:18:49;;;;;;;9.68;3.50;;;;;;;;;;5065957;28;20588;-76
2022/08/17 13:21:18;;;;;;;9.70;4.35;;;;;;;;;;5055835;28;20053;-77
2022/08/17 13:23:57;;;;;;;9.05;3.40;;;;;;;;;;5058508;28;20045;-76
2022/08/17 13:26:47;;;;;;;10.70;4.10;;;;;;;;;;5060407;28;20074;-76
2022/08/17 13:29:22;;;;;;;8.23;3.65;;;;;;;;;;5048636;28;20482;-76
2022/08/17 13:31:49;;;;;;;9.52;3.83;;;;;;;;;;5062138;28;20032;-76
2022/08/17 13:34:15;;;;;;;9.35;3.85;;;;;;;;;;5054234;28;20040;-76
2022/08/17 13:36:41;;;;;;;12.68;3.75;;;;;;;;;;5070497;28;20058;-76
2022/08/17 13:39:11;;;;;;;11.52;3.70;;;;;;;;;;5057141;28;20040;-76
2022/08/17 13:41:37;;;;;;;9.43;4.20;;;;;;;;;;5062369;28;20823;-76
2022/08/17 13:44:27;;;;;;;6.55;3.50;;;;;;;;;;5058854;28;20031;-76
2022/08/17 13:46:53;;;;;;;8.27;3.70;;;;;;;;;;5064187;28;20028;-76
2022/08/17 13:49:20;;;;;;;8.70;3.03;;;;;;;;;;5057327;28;20044;-76
2022/08/17 13:51:48;;;;;;;8.55;3.67;;;;;;;;;;5067210;28;20063;-77
2022/08/17 13:54:20;;;;;;;7.70;3.17;;;;;;;;;;5060139;28;20090;-76
2022/08/17 13:56:51;;;;;;;6.88;3.58;;;;;;;;;;5060085;28;20036;-76
2022/08/17 13:59:29;;;;;;;9.75;3.05;;;;;;;;;;5062316;28;20033;-76
2022/08/17 14:01:55;;;;;;;10.63;3.72;;;;;;;;;;5056222;28;20481;-76
2022/08/17 14:04:23;;;;;;;14.45;3.75;;;;;;;;;;5063393;28;20033;-77
2022/08/17 14:06:52;;;;;;;11.18;3.78;;;;;;;;;;5060378;28;20032;-76
2022/08/17 14:09:18;;;;;;;8.50;3.92;;;;;;;;;;5061300;28;20090;-76
2022/08/17 14:11:45;;;;;;;9.32;4.05;;;;;;;;;;5057803;28;20037;-76
2022/08/17 14:14:12;;;;;;;14.57;3.88;;;;;;;;;;5056448;28;20036;-77
2022/08/17 14:16:41;;;;;;;7.10;3.60;;;;;;;;;;5062115;28;20028;-76
2022/08/17 14:19:11;;;;;;;13.45;3.75;;;;;;;;;;5065487;28;20086;-76
2022/08/17 14:21:38;;;;;;;9.98;3.83;;;;;;;;;;5062854;28;20048;-76
2022/08/17 14:24:06;;;;;;;10.82;3.83;;;;;;;;;;5054127;28;20036;-77
2022/08/17 14:26:33;;;;;;;9.98;3.83;;;;;;;;;;5059553;28;20617;-76
2022/08/17 14:28:59;;;;;;;11.75;3.88;;;;;;;;;;5060507;28;20033;-76
2022/08/17 14:31:26;;;;;;;7.43;3.55;;;;;;;;;;5066197;28;20032;-76
2022/08/17 14:33:52;;;;;;;9.10;3.65;;;;;;;;;;5059875;28;20120;-76
2022/08/17 14:36:18;;;;;;;7.70;3.55;;;;;;;;;;5060803;28;20043;-76
2022/08/17 14:38:44;;;;;;;7.07;3.72;;;;;;;;;;5072026;28;20036;-77
2022/08/17 14:41:10;;;;;;;7.57;3.38;;;;;;;;;;5070254;28;20032;-76
2022/08/17 14:43:38;;;;;;;10.95;3.38;;;;;;;;;;5058821;28;20033;-76
2022/08/17 14:46:04;;;;;;;10.15;3.17;;;;;;;;;;5071424;28;20028;-76
2022/08/17 14:48:37;;;;;;;9.15;3.65;;;;;;;;;;5069716;28;20114;-76
2022/08/17 14:51:03;;;;;;;6.80;3.38;;;;;;;;;;5063716;28;20056;-76
2022/08/17 14:53:29;;;;;;;9.38;3.55;;;;;;;;;;5070240;28;20115;-76
2022/08/17 14:55:55;;;;;;;11.57;3.92;;;;;;;;;;5069225;28;20116;-77
2022/08/17 14:58:22;;;;;;;14.88;4.53;;;;;;;;;;5068483;28;20056;-76
2022/08/17 15:00:49;;;;;;;15.23;3.88;;;;;;;;;;5066508;28;20508;-76
2022/08/17 15:03:17;;;;;;;10.98;4.13;;;;;;;;;;5069995;28;20553;-76
2022/08/17 15:05:45;;;;;;;9.88;4.22;;;;;;;;;;5067592;28;20029;-76
2022/08/17 15:08:11;;;;;;;17.95;5.25;;;;;;;;;;5071002;28;20052;-76
2022/08/17 15:10:38;;;;;;;25.95;7.03;;;;;;;;;;5068235;28;20408;-76
2022/08/17 15:13:04;;;;;;;24.48;6.65;;;;;;;;;;5065787;28;20020;-76
2022/08/17 15:15:30;;;;;;;52.33;11.60;;;;;;;;;;5062523;28;20021;-76
2022/08/17 15:17:58;;;;;;;39.83;12.02;;;;;;;;;;5074483;28;20035;-76
2022/08/17 15:20:26;;;;;;;30.98;11.70;;;;;;;;;;5060924;28;20721;-76
2022/08/17 15:22:54;;;;;;;35.55;13.23;;;;;;;;;;5064452;28;20102;-75